sensor_id;sensor_type;location;lat;lon;timestamp;P1;durP1;ratioP1;P2;durP2;ratioP2
75680;SDS011;64294;49.176;16.626;2023-06-10T00:00:45;21.63;;;13.55;;
75680;SDS011;64294;49.176;16.626;2023-06-10T00:03:11;18.63;;;12.57;;
75680;SDS011;64294;49.176;16.626;2023-06-10T00:05:38;15.40;;;12.07;;
75680;SDS011;64294;49.176;16.626;2023-06-10T00:08:04;17.48;;;12.43;;
75680;SDS011;64294;49.176;16.626;2023-06-10T00:10:32;17.13;;;12.43;;
75680;SDS011;64294;49.176;16.626;2023-06-10T00:13:00;17.05;;;12.40;;
75680;SDS011;64294;49.176;16.626;2023-06-10T00:15:26;19.48;;;12.93;;
75680;SDS011;64294;49.176;16.626;2023-06-10T00:17:51;16.42;;;12.25;;
75680;SDS011;64294;49.176;16.626;2023-06-10T00:20:17;17.25;;;12.23;;
75680;SDS011;64294;49.176;16.626;2023-06-10T00:22:48;17.80;;;12.27;;
75680;SDS011;64294;49.176;16.626;2023-06-10T00:25:14;18.33;;;12.07;;
75680;SDS011;64294;49.176;16.626;2023-06-10T00:27:39;20.30;;;12.43;;
75680;SDS011;64294;49.176;16.626;2023-06-10T00:30:05;17.90;;;12.18;;
75680;SDS011;64294;49.176;16.626;2023-06-10T00:32:32;16.83;;;11.70;;
75680;SDS011;64294;49.176;16.626;2023-06-10T00:34:58;18.98;;;12.50;;
75680;SDS011;64294;49.176;16.626;2023-06-10T00:37:23;18.70;;;11.80;;
75680;SDS011;64294;49.176;16.626;2023-06-10T00:39:49;17.98;;;11.68;;
75680;SDS011;64294;49.176;16.626;2023-06-10T00:42:14;14.70;;;11.25;;
75680;SDS011;64294;49.176;16.626;2023-06-10T00:44:40;16.35;;;11.57;;
75680;SDS011;64294;49.176;16.626;2023-06-10T00:47:05;20.30;;;11.90;;
75680;SDS011;64294;49.176;16.626;2023-06-10T00:49:32;15.13;;;11.32;;
75680;SDS011;64294;49.176;16.626;2023-06-10T00:51:58;15.40;;;11.60;;
75680;SDS011;64294;49.176;16.626;2023-06-10T00:54:24;16.77;;;11.90;;
75680;SDS011;64294;49.176;16.626;2023-06-10T00:56:50;14.52;;;10.75;;
75680;SDS011;64294;49.176;16.626;2023-06-10T00:59:17;15.55;;;11.05;;
75680;SDS011;64294;49.176;16.626;2023-06-10T01:01:43;17.30;;;11.60;;
75680;SDS011;64294;49.176;16.626;2023-06-10T01:04:12;15.05;;;11.25;;
75680;SDS011;64294;49.176;16.626;2023-06-10T01:06:57;14.18;;;11.07;;
75680;SDS011;64294;49.176;16.626;2023-06-10T01:14:34;13.60;;;10.15;;
75680;SDS011;64294;49.176;16.626;2023-06-10T01:17:01;13.80;;;10.48;;
75680;SDS011;64294;49.176;16.626;2023-06-10T01:19:28;15.98;;;11.25;;
75680;SDS011;64294;49.176;16.626;2023-06-10T01:21:56;14.70;;;11.18;;
75680;SDS011;64294;49.176;16.626;2023-06-10T01:24:25;16.25;;;10.98;;
75680;SDS011;64294;49.176;16.626;2023-06-10T01:26:52;12.35;;;10.25;;
75680;SDS011;64294;49.176;16.626;2023-06-10T01:29:28;13.60;;;10.77;;
75680;SDS011;64294;49.176;16.626;2023-06-10T01:32:01;14.02;;;10.70;;
75680;SDS011;64294;49.176;16.626;2023-06-10T01:34:37;14.55;;;10.75;;
75680;SDS011;64294;49.176;16.626;2023-06-10T01:37:04;14.88;;;10.73;;
75680;SDS011;64294;49.176;16.626;2023-06-10T01:39:30;16.92;;;11.18;;
75680;SDS011;64294;49.176;16.626;2023-06-10T01:41:57;16.08;;;10.65;;
75680;SDS011;64294;49.176;16.626;2023-06-10T01:44:23;16.42;;;10.82;;
75680;SDS011;64294;49.176;16.626;2023-06-10T01:46:49;13.73;;;10.32;;
75680;SDS011;64294;49.176;16.626;2023-06-10T01:49:14;13.75;;;10.70;;
75680;SDS011;64294;49.176;16.626;2023-06-10T01:51:40;13.73;;;10.68;;
75680;SDS011;64294;49.176;16.626;2023-06-10T01:54:06;13.20;;;9.93;;
75680;SDS011;64294;49.176;16.626;2023-06-10T01:56:32;14.25;;;10.57;;
75680;SDS011;64294;49.176;16.626;2023-06-10T01:58:58;14.25;;;11.00;;
75680;SDS011;64294;49.176;16.626;2023-06-10T02:01:26;14.20;;;11.23;;
75680;SDS011;64294;49.176;16.626;2023-06-10T02:03:52;15.55;;;10.82;;
75680;SDS011;64294;49.176;16.626;2023-06-10T02:06:18;14.73;;;11.02;;
75680;SDS011;64294;49.176;16.626;2023-06-10T02:08:43;16.02;;;11.20;;
75680;SDS011;64294;49.176;16.626;2023-06-10T02:11:09;14.32;;;11.10;;
75680;SDS011;64294;49.176;16.626;2023-06-10T02:13:34;14.90;;;11.98;;
75680;SDS011;64294;49.176;16.626;2023-06-10T02:16:00;17.00;;;11.38;;
75680;SDS011;64294;49.176;16.626;2023-06-10T02:18:26;15.68;;;11.98;;
75680;SDS011;64294;49.176;16.626;2023-06-10T02:20:53;13.80;;;11.30;;
75680;SDS011;64294;49.176;16.626;2023-06-10T02:23:18;17.23;;;11.50;;
75680;SDS011;64294;49.176;16.626;2023-06-10T02:25:44;14.50;;;11.15;;
75680;SDS011;64294;49.176;16.626;2023-06-10T02:28:12;16.27;;;11.80;;
75680;SDS011;64294;49.176;16.626;2023-06-10T02:30:41;16.20;;;11.60;;
75680;SDS011;64294;49.176;16.626;2023-06-10T02:33:07;16.45;;;11.57;;
75680;SDS011;64294;49.176;16.626;2023-06-10T02:35:37;17.85;;;11.52;;
75680;SDS011;64294;49.176;16.626;2023-06-10T02:38:03;16.83;;;11.55;;
75680;SDS011;64294;49.176;16.626;2023-06-10T02:40:29;17.60;;;12.07;;
75680;SDS011;64294;49.176;16.626;2023-06-10T02:42:55;18.02;;;12.43;;
75680;SDS011;64294;49.176;16.626;2023-06-10T02:45:20;20.13;;;12.23;;
75680;SDS011;64294;49.176;16.626;2023-06-10T02:47:46;18.55;;;12.43;;
75680;SDS011;64294;49.176;16.626;2023-06-10T02:50:11;17.05;;;12.07;;
75680;SDS011;64294;49.176;16.626;2023-06-10T02:52:37;18.80;;;12.32;;
75680;SDS011;64294;49.176;16.626;2023-06-10T02:55:02;16.10;;;12.13;;
75680;SDS011;64294;49.176;16.626;2023-06-10T02:57:28;16.95;;;11.77;;
75680;SDS011;64294;49.176;16.626;2023-06-10T02:59:53;16.63;;;12.15;;
75680;SDS011;64294;49.176;16.626;2023-06-10T03:02:19;18.83;;;12.32;;
75680;SDS011;64294;49.176;16.626;2023-06-10T03:04:44;15.57;;;11.50;;
75680;SDS011;64294;49.176;16.626;2023-06-10T03:07:10;17.67;;;11.88;;
75680;SDS011;64294;49.176;16.626;2023-06-10T03:09:36;16.88;;;11.93;;
75680;SDS011;64294;49.176;16.626;2023-06-10T03:12:02;16.35;;;12.45;;
75680;SDS011;64294;49.176;16.626;2023-06-10T03:14:27;16.45;;;12.13;;
75680;SDS011;64294;49.176;16.626;2023-06-10T03:16:53;17.88;;;12.73;;
75680;SDS011;64294;49.176;16.626;2023-06-10T03:19:18;16.73;;;12.75;;
75680;SDS011;64294;49.176;16.626;2023-06-10T03:21:49;16.73;;;12.98;;
75680;SDS011;64294;49.176;16.626;2023-06-10T03:26:45;19.30;;;11.90;;
75680;SDS011;64294;49.176;16.626;2023-06-10T03:29:11;19.58;;;12.65;;
75680;SDS011;64294;49.176;16.626;2023-06-10T03:31:36;17.10;;;11.85;;
75680;SDS011;64294;49.176;16.626;2023-06-10T03:34:02;20.55;;;12.68;;
75680;SDS011;64294;49.176;16.626;2023-06-10T03:36:27;14.38;;;10.90;;
75680;SDS011;64294;49.176;16.626;2023-06-10T03:38:54;17.52;;;12.05;;
75680;SDS011;64294;49.176;16.626;2023-06-10T03:41:21;18.63;;;11.90;;
75680;SDS011;64294;49.176;16.626;2023-06-10T03:43:48;16.00;;;12.73;;
75680;SDS011;64294;49.176;16.626;2023-06-10T03:46:13;18.58;;;12.82;;
75680;SDS011;64294;49.176;16.626;2023-06-10T03:48:39;19.80;;;12.70;;
75680;SDS011;64294;49.176;16.626;2023-06-10T03:51:04;15.18;;;11.73;;
75680;SDS011;64294;49.176;16.626;2023-06-10T03:53:30;17.05;;;12.20;;
75680;SDS011;64294;49.176;16.626;2023-06-10T03:55:55;16.38;;;11.95;;
75680;SDS011;64294;49.176;16.626;2023-06-10T03:58:22;18.02;;;11.93;;
75680;SDS011;64294;49.176;16.626;2023-06-10T04:00:48;19.13;;;13.18;;
75680;SDS011;64294;49.176;16.626;2023-06-10T04:03:14;16.33;;;12.45;;
75680;SDS011;64294;49.176;16.626;2023-06-10T04:05:40;15.00;;;11.48;;
75680;SDS011;64294;49.176;16.626;2023-06-10T04:08:08;15.65;;;12.20;;
75680;SDS011;64294;49.176;16.626;2023-06-10T04:10:34;15.23;;;12.02;;
75680;SDS011;64294;49.176;16.626;2023-06-10T04:12:59;18.58;;;12.73;;
75680;SDS011;64294;49.176;16.626;2023-06-10T04:15:25;14.77;;;11.38;;
75680;SDS011;64294;49.176;16.626;2023-06-10T04:17:53;18.15;;;12.35;;
75680;SDS011;64294;49.176;16.626;2023-06-10T04:20:18;16.92;;;11.73;;
75680;SDS011;64294;49.176;16.626;2023-06-10T04:22:44;15.30;;;11.02;;
75680;SDS011;64294;49.176;16.626;2023-06-10T04:25:09;15.35;;;11.77;;
75680;SDS011;64294;49.176;16.626;2023-06-10T04:27:35;15.65;;;11.38;;
75680;SDS011;64294;49.176;16.626;2023-06-10T04:30:00;13.77;;;11.65;;
75680;SDS011;64294;49.176;16.626;2023-06-10T04:32:26;15.05;;;10.82;;
75680;SDS011;64294;49.176;16.626;2023-06-10T04:34:52;13.63;;;10.77;;
75680;SDS011;64294;49.176;16.626;2023-06-10T04:37:17;13.13;;;10.60;;
75680;SDS011;64294;49.176;16.626;2023-06-10T04:39:43;13.20;;;9.98;;
75680;SDS011;64294;49.176;16.626;2023-06-10T04:42:08;16.75;;;10.77;;
75680;SDS011;64294;49.176;16.626;2023-06-10T04:44:34;15.52;;;10.07;;
75680;SDS011;64294;49.176;16.626;2023-06-10T04:46:59;12.93;;;10.00;;
75680;SDS011;64294;49.176;16.626;2023-06-10T04:49:25;15.38;;;10.02;;
75680;SDS011;64294;49.176;16.626;2023-06-10T04:51:50;12.05;;;10.02;;
75680;SDS011;64294;49.176;16.626;2023-06-10T04:54:16;15.27;;;10.25;;
75680;SDS011;64294;49.176;16.626;2023-06-10T04:56:42;12.43;;;9.85;;
75680;SDS011;64294;49.176;16.626;2023-06-10T04:59:07;11.75;;;10.05;;
75680;SDS011;64294;49.176;16.626;2023-06-10T05:01:32;11.85;;;9.50;;
75680;SDS011;64294;49.176;16.626;2023-06-10T05:03:58;12.15;;;9.25;;
75680;SDS011;64294;49.176;16.626;2023-06-10T05:06:23;11.57;;;9.43;;
75680;SDS011;64294;49.176;16.626;2023-06-10T05:08:50;11.13;;;9.13;;
75680;SDS011;64294;49.176;16.626;2023-06-10T05:11:15;11.90;;;9.50;;
75680;SDS011;64294;49.176;16.626;2023-06-10T05:13:41;12.77;;;9.30;;
75680;SDS011;64294;49.176;16.626;2023-06-10T05:16:07;14.27;;;9.25;;
75680;SDS011;64294;49.176;16.626;2023-06-10T05:18:34;11.52;;;8.80;;
75680;SDS011;64294;49.176;16.626;2023-06-10T05:21:00;12.57;;;8.93;;
75680;SDS011;64294;49.176;16.626;2023-06-10T05:23:26;12.63;;;8.90;;
75680;SDS011;64294;49.176;16.626;2023-06-10T05:25:51;11.55;;;8.75;;
75680;SDS011;64294;49.176;16.626;2023-06-10T05:28:17;9.73;;;8.30;;
75680;SDS011;64294;49.176;16.626;2023-06-10T05:30:43;11.10;;;7.80;;
75680;SDS011;64294;49.176;16.626;2023-06-10T05:33:08;10.18;;;8.10;;
75680;SDS011;64294;49.176;16.626;2023-06-10T05:35:34;11.20;;;7.25;;
75680;SDS011;64294;49.176;16.626;2023-06-10T05:37:59;10.45;;;7.90;;
75680;SDS011;64294;49.176;16.626;2023-06-10T05:40:25;9.30;;;7.28;;
75680;SDS011;64294;49.176;16.626;2023-06-10T05:42:50;9.25;;;7.10;;
75680;SDS011;64294;49.176;16.626;2023-06-10T05:45:16;10.43;;;7.30;;
75680;SDS011;64294;49.176;16.626;2023-06-10T05:47:41;13.13;;;7.55;;
75680;SDS011;64294;49.176;16.626;2023-06-10T05:50:07;10.90;;;7.60;;
75680;SDS011;64294;49.176;16.626;2023-06-10T05:52:34;11.23;;;8.18;;
75680;SDS011;64294;49.176;16.626;2023-06-10T05:55:00;11.45;;;7.88;;
75680;SDS011;64294;49.176;16.626;2023-06-10T05:57:25;10.25;;;8.80;;
75680;SDS011;64294;49.176;16.626;2023-06-10T05:59:51;10.95;;;7.90;;
75680;SDS011;64294;49.176;16.626;2023-06-10T06:02:16;12.93;;;7.60;;
75680;SDS011;64294;49.176;16.626;2023-06-10T06:04:42;9.75;;;7.40;;
75680;SDS011;64294;49.176;16.626;2023-06-10T06:07:07;12.15;;;7.40;;
75680;SDS011;64294;49.176;16.626;2023-06-10T06:09:32;9.57;;;7.32;;
75680;SDS011;64294;49.176;16.626;2023-06-10T06:11:58;10.45;;;8.20;;
75680;SDS011;64294;49.176;16.626;2023-06-10T06:14:23;10.70;;;7.60;;
75680;SDS011;64294;49.176;16.626;2023-06-10T06:16:49;10.75;;;7.20;;
75680;SDS011;64294;49.176;16.626;2023-06-10T06:19:14;8.75;;;6.88;;
75680;SDS011;64294;49.176;16.626;2023-06-10T06:21:40;11.80;;;7.40;;
75680;SDS011;64294;49.176;16.626;2023-06-10T06:24:06;12.35;;;7.55;;
75680;SDS011;64294;49.176;16.626;2023-06-10T06:26:32;10.55;;;7.75;;
75680;SDS011;64294;49.176;16.626;2023-06-10T06:28:57;8.48;;;7.40;;
75680;SDS011;64294;49.176;16.626;2023-06-10T06:31:23;10.50;;;7.90;;
75680;SDS011;64294;49.176;16.626;2023-06-10T06:33:49;9.98;;;8.32;;
75680;SDS011;64294;49.176;16.626;2023-06-10T06:36:14;14.85;;;8.35;;
75680;SDS011;64294;49.176;16.626;2023-06-10T06:38:39;11.18;;;7.93;;
75680;SDS011;64294;49.176;16.626;2023-06-10T06:41:05;12.32;;;8.35;;
75680;SDS011;64294;49.176;16.626;2023-06-10T06:43:31;11.68;;;7.88;;
75680;SDS011;64294;49.176;16.626;2023-06-10T06:45:57;9.88;;;7.90;;
75680;SDS011;64294;49.176;16.626;2023-06-10T06:48:23;10.57;;;7.20;;
75680;SDS011;64294;49.176;16.626;2023-06-10T06:50:48;10.02;;;7.50;;
75680;SDS011;64294;49.176;16.626;2023-06-10T06:53:14;13.02;;;7.85;;
75680;SDS011;64294;49.176;16.626;2023-06-10T06:55:40;12.07;;;9.02;;
75680;SDS011;64294;49.176;16.626;2023-06-10T06:58:05;9.50;;;7.78;;
75680;SDS011;64294;49.176;16.626;2023-06-10T07:00:31;10.95;;;8.90;;
75680;SDS011;64294;49.176;16.626;2023-06-10T07:02:57;13.35;;;9.07;;
75680;SDS011;64294;49.176;16.626;2023-06-10T07:05:23;11.38;;;9.20;;
75680;SDS011;64294;49.176;16.626;2023-06-10T07:07:51;11.30;;;9.18;;
75680;SDS011;64294;49.176;16.626;2023-06-10T07:10:20;15.43;;;9.27;;
75680;SDS011;64294;49.176;16.626;2023-06-10T07:12:48;10.15;;;8.98;;
75680;SDS011;64294;49.176;16.626;2023-06-10T07:15:14;11.40;;;9.20;;
75680;SDS011;64294;49.176;16.626;2023-06-10T07:17:39;11.70;;;8.80;;
75680;SDS011;64294;49.176;16.626;2023-06-10T07:20:05;12.35;;;8.48;;
75680;SDS011;64294;49.176;16.626;2023-06-10T07:22:31;11.27;;;9.43;;
75680;SDS011;64294;49.176;16.626;2023-06-10T07:24:57;11.50;;;8.90;;
75680;SDS011;64294;49.176;16.626;2023-06-10T07:27:22;10.88;;;9.75;;
75680;SDS011;64294;49.176;16.626;2023-06-10T07:29:48;11.43;;;9.27;;
75680;SDS011;64294;49.176;16.626;2023-06-10T07:32:13;11.20;;;8.70;;
75680;SDS011;64294;49.176;16.626;2023-06-10T07:34:38;13.65;;;9.07;;
75680;SDS011;64294;49.176;16.626;2023-06-10T07:37:04;12.10;;;8.90;;
75680;SDS011;64294;49.176;16.626;2023-06-10T07:39:30;11.75;;;9.13;;
75680;SDS011;64294;49.176;16.626;2023-06-10T07:41:55;11.48;;;9.48;;
75680;SDS011;64294;49.176;16.626;2023-06-10T07:44:22;11.85;;;9.13;;
75680;SDS011;64294;49.176;16.626;2023-06-10T07:46:48;13.50;;;9.60;;
75680;SDS011;64294;49.176;16.626;2023-06-10T07:49:13;13.70;;;8.98;;
75680;SDS011;64294;49.176;16.626;2023-06-10T07:51:39;9.77;;;8.55;;
75680;SDS011;64294;49.176;16.626;2023-06-10T07:54:04;12.52;;;11.00;;
75680;SDS011;64294;49.176;16.626;2023-06-10T07:56:30;13.60;;;9.55;;
75680;SDS011;64294;49.176;16.626;2023-06-10T07:58:55;13.38;;;9.60;;
75680;SDS011;64294;49.176;16.626;2023-06-10T08:01:22;12.15;;;9.75;;
75680;SDS011;64294;49.176;16.626;2023-06-10T08:03:48;12.70;;;10.10;;
75680;SDS011;64294;49.176;16.626;2023-06-10T08:06:13;11.40;;;9.38;;
75680;SDS011;64294;49.176;16.626;2023-06-10T08:08:39;11.60;;;9.43;;
75680;SDS011;64294;49.176;16.626;2023-06-10T08:11:09;12.00;;;8.85;;
75680;SDS011;64294;49.176;16.626;2023-06-10T08:13:36;13.70;;;10.45;;
75680;SDS011;64294;49.176;16.626;2023-06-10T08:16:02;12.68;;;9.52;;
75680;SDS011;64294;49.176;16.626;2023-06-10T08:18:28;12.77;;;9.88;;
75680;SDS011;64294;49.176;16.626;2023-06-10T08:20:56;12.32;;;9.93;;
75680;SDS011;64294;49.176;16.626;2023-06-10T08:23:22;12.77;;;10.43;;
75680;SDS011;64294;49.176;16.626;2023-06-10T08:25:48;13.43;;;10.38;;
75680;SDS011;64294;49.176;16.626;2023-06-10T08:28:13;16.80;;;10.90;;
75680;SDS011;64294;49.176;16.626;2023-06-10T08:30:39;12.60;;;11.18;;
75680;SDS011;64294;49.176;16.626;2023-06-10T08:33:04;14.88;;;11.13;;
75680;SDS011;64294;49.176;16.626;2023-06-10T08:35:30;13.55;;;11.55;;
75680;SDS011;64294;49.176;16.626;2023-06-10T08:37:55;14.93;;;11.75;;
75680;SDS011;64294;49.176;16.626;2023-06-10T08:40:21;15.13;;;11.60;;
75680;SDS011;64294;49.176;16.626;2023-06-10T08:42:54;14.20;;;11.38;;
75680;SDS011;64294;49.176;16.626;2023-06-10T08:45:28;13.10;;;11.32;;
75680;SDS011;64294;49.176;16.626;2023-06-10T08:48:00;13.95;;;11.38;;
75680;SDS011;64294;49.176;16.626;2023-06-10T08:50:32;15.73;;;11.75;;
75680;SDS011;64294;49.176;16.626;2023-06-10T08:53:04;18.35;;;11.88;;
75680;SDS011;64294;49.176;16.626;2023-06-10T08:55:37;13.00;;;11.15;;
75680;SDS011;64294;49.176;16.626;2023-06-10T08:58:07;14.45;;;11.50;;
75680;SDS011;64294;49.176;16.626;2023-06-10T09:00:32;13.77;;;10.57;;
75680;SDS011;64294;49.176;16.626;2023-06-10T09:02:59;14.18;;;9.63;;
75680;SDS011;64294;49.176;16.626;2023-06-10T09:05:27;14.20;;;10.80;;
75680;SDS011;64294;49.176;16.626;2023-06-10T09:07:54;13.15;;;10.48;;
75680;SDS011;64294;49.176;16.626;2023-06-10T09:10:22;12.30;;;10.10;;
75680;SDS011;64294;49.176;16.626;2023-06-10T09:12:47;14.02;;;9.75;;
75680;SDS011;64294;49.176;16.626;2023-06-10T09:15:13;15.00;;;9.70;;
75680;SDS011;64294;49.176;16.626;2023-06-10T09:17:39;14.35;;;9.35;;
75680;SDS011;64294;49.176;16.626;2023-06-10T09:20:06;11.80;;;8.82;;
75680;SDS011;64294;49.176;16.626;2023-06-10T09:22:33;12.48;;;8.88;;
75680;SDS011;64294;49.176;16.626;2023-06-10T09:25:02;10.98;;;8.20;;
75680;SDS011;64294;49.176;16.626;2023-06-10T09:27:30;11.45;;;8.18;;
75680;SDS011;64294;49.176;16.626;2023-06-10T09:29:59;12.00;;;8.57;;
75680;SDS011;64294;49.176;16.626;2023-06-10T09:32:24;10.30;;;7.95;;
75680;SDS011;64294;49.176;16.626;2023-06-10T09:34:50;12.68;;;8.30;;
75680;SDS011;64294;49.176;16.626;2023-06-10T09:37:22;8.95;;;7.57;;
75680;SDS011;64294;49.176;16.626;2023-06-10T09:40:04;10.47;;;8.37;;
75680;SDS011;64294;49.176;16.626;2023-06-10T09:42:32;10.57;;;8.05;;
75680;SDS011;64294;49.176;16.626;2023-06-10T09:44:59;10.20;;;8.35;;
75680;SDS011;64294;49.176;16.626;2023-06-10T09:47:26;12.50;;;8.80;;
75680;SDS011;64294;49.176;16.626;2023-06-10T09:49:51;12.45;;;8.57;;
75680;SDS011;64294;49.176;16.626;2023-06-10T09:52:23;10.07;;;8.73;;
75680;SDS011;64294;49.176;16.626;2023-06-10T09:54:53;10.27;;;8.50;;
75680;SDS011;64294;49.176;16.626;2023-06-10T09:57:19;9.77;;;8.50;;
75680;SDS011;64294;49.176;16.626;2023-06-10T09:59:46;12.25;;;8.43;;
75680;SDS011;64294;49.176;16.626;2023-06-10T10:02:15;11.88;;;8.30;;
75680;SDS011;64294;49.176;16.626;2023-06-10T10:04:42;10.95;;;8.52;;
75680;SDS011;64294;49.176;16.626;2023-06-10T10:07:09;10.43;;;8.65;;
75680;SDS011;64294;49.176;16.626;2023-06-10T10:09:38;10.63;;;8.68;;
75680;SDS011;64294;49.176;16.626;2023-06-10T10:12:09;10.77;;;8.38;;
75680;SDS011;64294;49.176;16.626;2023-06-10T10:14:36;13.45;;;9.20;;
75680;SDS011;64294;49.176;16.626;2023-06-10T10:17:07;13.57;;;9.25;;
75680;SDS011;64294;49.176;16.626;2023-06-10T10:19:48;11.10;;;9.13;;
75680;SDS011;64294;49.176;16.626;2023-06-10T10:22:19;13.68;;;9.32;;
75680;SDS011;64294;49.176;16.626;2023-06-10T10:24:50;10.60;;;8.65;;
75680;SDS011;64294;49.176;16.626;2023-06-10T10:27:18;12.32;;;9.07;;
75680;SDS011;64294;49.176;16.626;2023-06-10T10:29:51;10.68;;;9.18;;
75680;SDS011;64294;49.176;16.626;2023-06-10T10:32:18;11.20;;;9.52;;
75680;SDS011;64294;49.176;16.626;2023-06-10T10:37:54;13.18;;;10.27;;
75680;SDS011;64294;49.176;16.626;2023-06-10T10:40:20;14.13;;;10.48;;
75680;SDS011;64294;49.176;16.626;2023-06-10T10:42:48;14.30;;;10.73;;
75680;SDS011;64294;49.176;16.626;2023-06-10T10:45:15;13.77;;;10.77;;
75680;SDS011;64294;49.176;16.626;2023-06-10T10:47:40;15.07;;;11.23;;
75680;SDS011;64294;49.176;16.626;2023-06-10T10:50:14;15.45;;;11.50;;
75680;SDS011;64294;49.176;16.626;2023-06-10T10:53:00;13.60;;;11.90;;
75680;SDS011;64294;49.176;16.626;2023-06-10T10:55:27;14.23;;;10.98;;
75680;SDS011;64294;49.176;16.626;2023-06-10T10:58:03;12.43;;;11.13;;
75680;SDS011;64294;49.176;16.626;2023-06-10T11:00:36;16.83;;;11.70;;
75680;SDS011;64294;49.176;16.626;2023-06-10T11:08:07;14.48;;;11.93;;
75680;SDS011;64294;49.176;16.626;2023-06-10T11:10:40;16.98;;;12.60;;
75680;SDS011;64294;49.176;16.626;2023-06-10T11:13:12;15.73;;;12.00;;
75680;SDS011;64294;49.176;16.626;2023-06-10T11:15:39;16.85;;;11.95;;
75680;SDS011;64294;49.176;16.626;2023-06-10T11:18:21;15.05;;;10.98;;
75680;SDS011;64294;49.176;16.626;2023-06-10T11:31:24;13.50;;;10.63;;
75680;SDS011;64294;49.176;16.626;2023-06-10T11:33:55;15.52;;;10.15;;
75680;SDS011;64294;49.176;16.626;2023-06-10T11:36:21;13.35;;;10.30;;
75680;SDS011;64294;49.176;16.626;2023-06-10T11:38:49;12.00;;;10.70;;
75680;SDS011;64294;49.176;16.626;2023-06-10T11:41:18;11.73;;;10.30;;
75680;SDS011;64294;49.176;16.626;2023-06-10T11:43:44;15.52;;;11.05;;
75680;SDS011;64294;49.176;16.626;2023-06-10T11:46:10;15.05;;;10.35;;
75680;SDS011;64294;49.176;16.626;2023-06-10T11:51:20;16.42;;;10.70;;
75680;SDS011;64294;49.176;16.626;2023-06-10T11:53:48;13.63;;;11.65;;
75680;SDS011;64294;49.176;16.626;2023-06-10T11:56:21;12.50;;;10.32;;
75680;SDS011;64294;49.176;16.626;2023-06-10T11:58:54;13.80;;;10.68;;
75680;SDS011;64294;49.176;16.626;2023-06-10T12:01:22;11.57;;;10.38;;
75680;SDS011;64294;49.176;16.626;2023-06-10T12:06:26;16.33;;;10.73;;
75680;SDS011;64294;49.176;16.626;2023-06-10T12:08:53;12.18;;;9.98;;
75680;SDS011;64294;49.176;16.626;2023-06-10T12:11:19;12.80;;;10.95;;
75680;SDS011;64294;49.176;16.626;2023-06-10T12:13:46;11.25;;;9.85;;
75680;SDS011;64294;49.176;16.626;2023-06-10T12:16:15;14.88;;;10.02;;
75680;SDS011;64294;49.176;16.626;2023-06-10T12:18:43;13.07;;;9.40;;
75680;SDS011;64294;49.176;16.626;2023-06-10T12:21:19;10.82;;;9.70;;
75680;SDS011;64294;49.176;16.626;2023-06-10T12:24:04;11.30;;;9.73;;
75680;SDS011;64294;49.176;16.626;2023-06-10T12:26:35;11.98;;;9.52;;
75680;SDS011;64294;49.176;16.626;2023-06-10T12:29:02;11.57;;;10.05;;
75680;SDS011;64294;49.176;16.626;2023-06-10T12:31:57;10.82;;;9.73;;
75680;SDS011;64294;49.176;16.626;2023-06-10T12:34:42;11.85;;;9.73;;
75680;SDS011;64294;49.176;16.626;2023-06-10T12:37:11;11.90;;;9.35;;
75680;SDS011;64294;49.176;16.626;2023-06-10T12:39:39;11.00;;;9.27;;
75680;SDS011;64294;49.176;16.626;2023-06-10T12:42:05;12.43;;;10.65;;
75680;SDS011;64294;49.176;16.626;2023-06-10T12:44:34;13.57;;;10.10;;
75680;SDS011;64294;49.176;16.626;2023-06-10T12:47:09;12.95;;;9.75;;
75680;SDS011;64294;49.176;16.626;2023-06-10T12:49:37;11.80;;;9.02;;
75680;SDS011;64294;49.176;16.626;2023-06-10T12:52:03;11.88;;;9.10;;
75680;SDS011;64294;49.176;16.626;2023-06-10T12:54:30;11.98;;;9.07;;
75680;SDS011;64294;49.176;16.626;2023-06-10T12:56:55;10.02;;;8.95;;
75680;SDS011;64294;49.176;16.626;2023-06-10T12:59:20;10.20;;;8.80;;
75680;SDS011;64294;49.176;16.626;2023-06-10T13:01:50;11.38;;;8.60;;
75680;SDS011;64294;49.176;16.626;2023-06-10T13:04:16;10.98;;;8.10;;
75680;SDS011;64294;49.176;16.626;2023-06-10T13:06:43;9.15;;;8.00;;
75680;SDS011;64294;49.176;16.626;2023-06-10T13:09:09;9.40;;;7.47;;
75680;SDS011;64294;49.176;16.626;2023-06-10T13:11:34;8.80;;;7.43;;
75680;SDS011;64294;49.176;16.626;2023-06-10T13:14:00;7.70;;;6.47;;
75680;SDS011;64294;49.176;16.626;2023-06-10T13:16:27;10.15;;;7.65;;
75680;SDS011;64294;49.176;16.626;2023-06-10T13:18:53;10.48;;;7.15;;
75680;SDS011;64294;49.176;16.626;2023-06-10T13:21:19;8.45;;;6.20;;
75680;SDS011;64294;49.176;16.626;2023-06-10T13:23:45;8.43;;;6.35;;
75680;SDS011;64294;49.176;16.626;2023-06-10T13:26:12;7.18;;;6.07;;
75680;SDS011;64294;49.176;16.626;2023-06-10T13:28:38;9.68;;;6.15;;
75680;SDS011;64294;49.176;16.626;2023-06-10T13:31:03;7.72;;;5.85;;
75680;SDS011;64294;49.176;16.626;2023-06-10T13:33:29;7.60;;;5.82;;
75680;SDS011;64294;49.176;16.626;2023-06-10T13:35:54;7.47;;;5.60;;
75680;SDS011;64294;49.176;16.626;2023-06-10T13:38:19;7.18;;;5.20;;
75680;SDS011;64294;49.176;16.626;2023-06-10T13:40:45;7.43;;;5.70;;
75680;SDS011;64294;49.176;16.626;2023-06-10T13:43:10;9.40;;;6.70;;
75680;SDS011;64294;49.176;16.626;2023-06-10T13:45:37;11.35;;;6.25;;
75680;SDS011;64294;49.176;16.626;2023-06-10T13:48:02;7.55;;;6.25;;
75680;SDS011;64294;49.176;16.626;2023-06-10T13:50:29;8.10;;;7.00;;
75680;SDS011;64294;49.176;16.626;2023-06-10T13:52:54;10.82;;;7.18;;
75680;SDS011;64294;49.176;16.626;2023-06-10T13:55:20;8.40;;;6.63;;
75680;SDS011;64294;49.176;16.626;2023-06-10T13:57:45;9.02;;;6.88;;
75680;SDS011;64294;49.176;16.626;2023-06-10T14:00:11;12.18;;;7.60;;
75680;SDS011;64294;49.176;16.626;2023-06-10T14:02:37;11.45;;;7.57;;
75680;SDS011;64294;49.176;16.626;2023-06-10T14:05:03;9.18;;;7.53;;
75680;SDS011;64294;49.176;16.626;2023-06-10T14:07:30;11.60;;;7.90;;
75680;SDS011;64294;49.176;16.626;2023-06-10T14:09:56;12.40;;;7.90;;
75680;SDS011;64294;49.176;16.626;2023-06-10T14:12:21;10.05;;;8.07;;
75680;SDS011;64294;49.176;16.626;2023-06-10T14:14:47;14.20;;;8.63;;
75680;SDS011;64294;49.176;16.626;2023-06-10T14:17:12;9.80;;;8.30;;
75680;SDS011;64294;49.176;16.626;2023-06-10T14:19:41;9.82;;;8.68;;
75680;SDS011;64294;49.176;16.626;2023-06-10T14:22:06;12.50;;;9.23;;
75680;SDS011;64294;49.176;16.626;2023-06-10T14:24:33;11.85;;;8.30;;
75680;SDS011;64294;49.176;16.626;2023-06-10T14:27:00;10.35;;;7.85;;
75680;SDS011;64294;49.176;16.626;2023-06-10T14:29:25;10.10;;;8.13;;
75680;SDS011;64294;49.176;16.626;2023-06-10T14:31:53;11.07;;;7.60;;
75680;SDS011;64294;49.176;16.626;2023-06-10T14:34:19;10.40;;;8.05;;
75680;SDS011;64294;49.176;16.626;2023-06-10T14:36:45;9.50;;;7.32;;
75680;SDS011;64294;49.176;16.626;2023-06-10T14:39:11;11.57;;;7.60;;
75680;SDS011;64294;49.176;16.626;2023-06-10T14:41:36;13.05;;;7.15;;
75680;SDS011;64294;49.176;16.626;2023-06-10T14:44:01;10.57;;;7.20;;
75680;SDS011;64294;49.176;16.626;2023-06-10T14:46:27;11.63;;;7.45;;